OMAL/AAN METAR and TAF weather

Enter ICAO airport designator
Station Type Date Time Source
OMAL METAR 2022/07/03 15:00 UTC NOAA

OMAL 031500Z 27008KT CAVOK 43/13 Q0994 NOSIG


Station Type Date Time Source
OMAL Decoded METAR 2022/07/03 15:00 UTC NOAA

Al Ain International Airport, United Arab Emirates (OMAL) 24-16N 055-36E 262M
Jul 03, 2022 - 11:00 AM EDT / 2022.07.03 1500 UTC
Wind: from the W (270 degrees) at 9 MPH (8 KT):0
Visibility: greater than 7 mile(s):0
Temperature: 109 F (43 C)
Heat index: 108.1 F (42.3 C):1
Dew Point: 55 F (13 C)
Relative Humidity: 17%
Pressure (altimeter): 29.35 in. Hg (0994 hPa)
ob: OMAL 031500Z 27008KT CAVOK 43/13 Q0994 NOSIG
cycle: 15

Station Type Date Time Source
OMAL TAF 2022/07/03 12:54 UTC NOAA

TAF OMAL 031100Z 0312/0418 31014KT 8000 NSC PROB30
TEMPO 0312/0315 VRB15G25KT 4000 SHRA BLDU FEW045TCU
BECMG 0321/0323 VRB02KT
BECMG 0402/0404 13008KT
BECMG 0410/0412 31014KT PROB30
TEMPO 0410/0415 VRB15G25KT 4000 SHRA BLDU FEW045TCU

Example: see airport list